Time;durP1;ratioP1;P1;durP2;ratioP2;P2;SDS_P1;SDS_P2;PMS_P1;PMS_P2;Temp;Humidity;BMP_temperature;BMP_pressure;BME280_temperature;BME280_humidity;BME280_pressure;Samples;Min_cycle;Max_cycle;Signal;HPM_P1;HPM_P2
2023/10/23 00:01:33;;;;;;;;;;;16.50;99.90;;;;;;5074036;28;19909;-80
2023/10/23 00:03:58;;;;;;;;;;;16.50;99.90;;;;;;5085185;28;20007;-79
2023/10/23 00:06:24;;;;;;;;;;;16.50;99.90;;;;;;5085650;28;19952;-86
2023/10/23 00:08:49;;;;;;;;;;;16.60;99.90;;;;;;5084123;28;19936;-84
2023/10/23 00:11:22;;;;;;;;;;;16.60;99.90;;;;;;5085283;28;19908;-79
2023/10/23 00:13:47;;;;;;;;;;;16.60;99.90;;;;;;5084213;28;19916;-78
2023/10/23 00:16:13;;;;;;;;;;;16.60;99.90;;;;;;5086413;28;19908;-78
2023/10/23 00:18:38;;;;;;;;;;;16.70;99.90;;;;;;5084001;28;19913;-79
2023/10/23 00:21:04;;;;;;;;;;;16.70;99.90;;;;;;5085651;28;19930;-77
2023/10/23 00:23:29;;;;;;;;;;;16.70;99.90;;;;;;5083445;28;19931;-80
2023/10/23 00:25:55;;;;;;;;;;;16.70;99.90;;;;;;5084755;28;19908;-80
2023/10/23 00:28:21;;;;;;;;;;;16.80;99.90;;;;;;5083575;28;19931;-79
2023/10/23 00:30:46;;;;;;;;;;;16.80;99.90;;;;;;5082508;28;19997;-79
2023/10/23 00:33:12;;;;;;;;;;;16.80;99.90;;;;;;5082638;28;19912;-79
2023/10/23 00:35:37;;;;;;;;;;;16.80;99.90;;;;;;5084966;28;19934;-78
2023/10/23 00:38:03;;;;;;;;;;;16.80;99.90;;;;;;5082837;28;20288;-79
2023/10/23 00:40:29;;;;;;;;;;;16.80;99.90;;;;;;5084973;28;19908;-81
2023/10/23 00:42:55;;;;;;;;;;;16.90;99.90;;;;;;5085472;28;19915;-82
2023/10/23 00:45:20;;;;;;;;;;;16.90;99.90;;;;;;5086476;28;19919;-80
2023/10/23 00:47:46;;;;;;;;;;;16.90;99.90;;;;;;5086125;28;19908;-82
2023/10/23 00:50:12;;;;;;;;;;;17.00;99.90;;;;;;5085376;28;19948;-81
2023/10/23 00:52:38;;;;;;;;;;;17.00;99.90;;;;;;5083627;28;20011;-79
2023/10/23 00:55:03;;;;;;;;;;;17.00;99.90;;;;;;5085150;28;20020;-81
2023/10/23 00:57:29;;;;;;;;;;;17.00;99.90;;;;;;5082756;28;20042;-82
2023/10/23 00:59:55;;;;;;;;;;;17.00;99.90;;;;;;5084663;28;20445;-84
2023/10/23 01:02:20;;;;;;;;;;;17.00;99.90;;;;;;5084679;28;19958;-82
2023/10/23 01:04:46;;;;;;;;;;;17.00;99.90;;;;;;5083811;28;19934;-79
2023/10/23 01:07:12;;;;;;;;;;;17.00;99.90;;;;;;5088844;28;19908;-82
2023/10/23 01:09:37;;;;;;;;;;;17.00;99.90;;;;;;5086107;28;19923;-83
2023/10/23 01:12:03;;;;;;;;;;;17.00;99.90;;;;;;5093944;28;20364;-79
2023/10/23 01:14:29;;;;;;;;;;;17.00;99.90;;;;;;5086550;28;19929;-82
2023/10/23 01:16:55;;;;;;;;;;;16.90;99.90;;;;;;5079791;28;19936;-81
2023/10/23 01:19:21;;;;;;;;;;;17.00;99.90;;;;;;5078816;28;20397;-84
2023/10/23 01:21:46;;;;;;;;;;;17.00;99.90;;;;;;5081990;28;19909;-80
2023/10/23 01:24:12;;;;;;;;;;;17.00;99.90;;;;;;5095079;28;19919;-80
2023/10/23 01:26:38;;;;;;;;;;;17.10;99.90;;;;;;5092990;28;20596;-79
2023/10/23 01:29:03;;;;;;;;;;;17.00;99.90;;;;;;5095224;28;20015;-79
2023/10/23 01:31:29;;;;;;;;;;;17.10;99.90;;;;;;5091808;28;20004;-83
2023/10/23 01:33:55;;;;;;;;;;;17.00;99.90;;;;;;5095017;28;20349;-78
2023/10/23 01:36:20;;;;;;;;;;;17.00;99.90;;;;;;5091832;28;19909;-86
2023/10/23 01:38:46;;;;;;;;;;;16.90;99.90;;;;;;5093425;28;20624;-82
2023/10/23 01:41:11;;;;;;;;;;;17.00;99.90;;;;;;5083596;28;20408;-80
2023/10/23 01:43:37;;;;;;;;;;;17.00;99.90;;;;;;5082598;28;20545;-85
2023/10/23 01:46:02;;;;;;;;;;;16.90;99.90;;;;;;5083230;28;19915;-83
2023/10/23 01:48:28;;;;;;;;;;;16.90;99.90;;;;;;5081854;28;19912;-85
2023/10/23 01:50:53;;;;;;;;;;;16.90;99.90;;;;;;5083631;28;19913;-88
2023/10/23 01:53:19;;;;;;;;;;;16.90;99.90;;;;;;5082040;28;20014;-86
2023/10/23 01:55:45;;;;;;;;;;;16.90;99.90;;;;;;5081753;28;19917;-82
2023/10/23 01:58:10;;;;;;;;;;;16.90;99.90;;;;;;5080959;28;19908;-84
2023/10/23 02:00:36;;;;;;;;;;;16.90;99.90;;;;;;5083580;28;20038;-84
2023/10/23 02:03:01;;;;;;;;;;;16.90;99.90;;;;;;5081932;28;19952;-81
2023/10/23 02:05:27;;;;;;;;;;;16.90;99.90;;;;;;5083032;28;19935;-81
2023/10/23 02:07:52;;;;;;;;;;;16.90;99.90;;;;;;5078558;28;20288;-77
2023/10/23 02:10:18;;;;;;;;;;;16.90;99.90;;;;;;5084666;28;20344;-82
2023/10/23 02:12:43;;;;;;;;;;;16.80;99.90;;;;;;5082376;28;19935;-82
2023/10/23 02:15:10;;;;;;;;;;;16.90;99.90;;;;;;5090480;28;19939;-80
2023/10/23 02:17:36;;;;;;;;;;;16.90;99.90;;;;;;5085811;28;19916;-80
2023/10/23 02:20:05;;;;;;;;;;;16.80;99.90;;;;;;5078393;28;20410;-83
2023/10/23 02:22:30;;;;;;;;;;;16.90;99.90;;;;;;5079957;28;19912;-82
2023/10/23 02:24:56;;;;;;;;;;;16.90;99.90;;;;;;5084477;28;19991;-81
2023/10/23 02:27:21;;;;;;;;;;;16.90;99.90;;;;;;5094648;28;19920;-79
2023/10/23 02:29:47;;;;;;;;;;;16.90;99.90;;;;;;5093553;28;19908;-85
2023/10/23 02:32:14;;;;;;;;;;;16.90;99.90;;;;;;5094450;28;19915;-84
2023/10/23 02:34:40;;;;;;;;;;;16.90;99.90;;;;;;5093097;28;19919;-90
2023/10/23 02:37:05;;;;;;;;;;;17.00;99.90;;;;;;5095771;28;19912;-80
2023/10/23 02:39:31;;;;;;;;;;;17.00;99.90;;;;;;5093095;28;20369;-82
2023/10/23 02:41:56;;;;;;;;;;;17.00;99.90;;;;;;5094835;28;19908;-78
2023/10/23 02:44:22;;;;;;;;;;;17.00;99.90;;;;;;5084441;28;19917;-81
2023/10/23 02:46:47;;;;;;;;;;;17.00;99.90;;;;;;5080767;28;19913;-81
2023/10/23 02:49:13;;;;;;;;;;;17.00;99.90;;;;;;5083197;28;19915;-81
2023/10/23 02:51:38;;;;;;;;;;;17.10;99.90;;;;;;5082101;28;19920;-82
2023/10/23 02:54:04;;;;;;;;;;;17.10;99.90;;;;;;5084572;28;19912;-80
2023/10/23 02:56:31;;;;;;;;;;;17.20;99.90;;;;;;5081274;28;20296;-77
2023/10/23 02:58:57;;;;;;;;;;;17.20;99.90;;;;;;5073032;28;20287;-78
2023/10/23 03:01:23;;;;;;;;;;;17.10;99.90;;;;;;5081598;28;19909;-82
2023/10/23 03:03:49;;;;;;;;;;;17.20;99.90;;;;;;5076230;28;19970;-80
2023/10/23 03:06:15;;;;;;;;;;;17.10;99.90;;;;;;5074772;28;19908;-79
2023/10/23 03:08:40;;;;;;;;;;;17.20;99.90;;;;;;5087586;28;19909;-82
2023/10/23 03:11:06;;;;;;;;;;;17.20;99.90;;;;;;5088315;28;20671;-80
2023/10/23 03:13:32;;;;;;;;;;;17.10;99.90;;;;;;5087815;28;19919;-80
2023/10/23 03:15:58;;;;;;;;;;;17.20;99.90;;;;;;5086185;28;20364;-83
2023/10/23 03:18:23;;;;;;;;;;;17.10;99.90;;;;;;5083674;28;19909;-80
2023/10/23 03:20:49;;;;;;;;;;;17.10;99.90;;;;;;5080573;28;19909;-78
2023/10/23 03:23:14;;;;;;;;;;;17.10;99.90;;;;;;5083833;28;19908;-79
2023/10/23 03:25:41;;;;;;;;;;;17.10;99.90;;;;;;5083325;28;19930;-81
2023/10/23 03:28:07;;;;;;;;;;;17.10;99.90;;;;;;5083396;28;19932;-88
2023/10/23 03:30:32;;;;;;;;;;;17.10;99.90;;;;;;5070720;28;19913;-83
2023/10/23 03:32:58;;;;;;;;;;;17.00;99.90;;;;;;5083813;28;19912;-83
2023/10/23 03:35:24;;;;;;;;;;;16.90;99.90;;;;;;5079581;28;19912;-85
2023/10/23 03:37:49;;;;;;;;;;;17.00;99.90;;;;;;5084390;28;19948;-80
2023/10/23 03:40:15;;;;;;;;;;;17.00;99.90;;;;;;5081629;28;20403;-77
2023/10/23 03:42:40;;;;;;;;;;;17.00;99.90;;;;;;5084157;28;19908;-78
2023/10/23 03:45:06;;;;;;;;;;;17.00;99.90;;;;;;5080352;28;19909;-85
2023/10/23 03:47:32;;;;;;;;;;;17.10;99.90;;;;;;5071383;28;19909;-80
2023/10/23 03:49:57;;;;;;;;;;;17.00;99.90;;;;;;5078944;28;19916;-77
2023/10/23 03:52:23;;;;;;;;;;;17.00;99.90;;;;;;5083944;28;20623;-81
2023/10/23 03:54:48;;;;;;;;;;;17.00;99.90;;;;;;5081379;28;19962;-81
2023/10/23 03:57:14;;;;;;;;;;;17.00;99.90;;;;;;5085449;28;19971;-84
2023/10/23 03:59:43;;;;;;;;;;;16.90;99.90;;;;;;5067492;28;20297;-83
2023/10/23 04:02:08;;;;;;;;;;;16.90;99.90;;;;;;5089448;28;19917;-83
2023/10/23 04:04:34;;;;;;;;;;;17.00;99.90;;;;;;5087262;28;19970;-84
2023/10/23 04:06:59;;;;;;;;;;;17.00;99.90;;;;;;5089300;28;20376;-80
2023/10/23 04:09:28;;;;;;;;;;;17.00;99.90;;;;;;5078468;28;19913;-83
2023/10/23 04:11:54;;;;;;;;;;;17.00;99.90;;;;;;5089635;28;19918;-85
2023/10/23 04:14:20;;;;;;;;;;;17.00;99.90;;;;;;5087553;28;19913;-81
2023/10/23 04:16:46;;;;;;;;;;;16.90;99.90;;;;;;5089217;28;19924;-83
2023/10/23 04:19:11;;;;;;;;;;;16.90;99.90;;;;;;5084264;28;19916;-81
2023/10/23 04:21:39;;;;;;;;;;;16.90;99.90;;;;;;5087083;28;19974;-81
2023/10/23 04:24:05;;;;;;;;;;;16.90;99.90;;;;;;5084108;28;20300;-79
2023/10/23 04:26:31;;;;;;;;;;;16.90;99.90;;;;;;5078661;28;19941;-80
2023/10/23 04:28:56;;;;;;;;;;;16.80;99.90;;;;;;5076519;28;19921;-80
2023/10/23 04:31:22;;;;;;;;;;;16.80;99.90;;;;;;5085705;28;19915;-79
2023/10/23 04:33:48;;;;;;;;;;;16.90;99.90;;;;;;5083446;28;20368;-84
2023/10/23 04:36:13;;;;;;;;;;;16.90;99.90;;;;;;5084812;28;20380;-83
2023/10/23 04:38:39;;;;;;;;;;;17.00;99.90;;;;;;5083215;28;19917;-81
2023/10/23 04:41:04;;;;;;;;;;;17.10;99.90;;;;;;5085694;28;19912;-78
2023/10/23 04:43:30;;;;;;;;;;;17.10;99.90;;;;;;5082510;28;19963;-78
2023/10/23 04:45:59;;;;;;;;;;;17.10;99.90;;;;;;5085231;28;20568;-84
2023/10/23 04:48:24;;;;;;;;;;;17.10;99.90;;;;;;5083176;28;19912;-84
2023/10/23 04:50:50;;;;;;;;;;;17.10;99.90;;;;;;5083711;28;19999;-83
2023/10/23 04:53:15;;;;;;;;;;;17.10;99.90;;;;;;5083162;28;19915;-84
2023/10/23 04:55:41;;;;;;;;;;;17.20;99.90;;;;;;5085035;28;20390;-78
2023/10/23 04:58:07;;;;;;;;;;;17.20;99.90;;;;;;5081619;28;20368;-84
2023/10/23 05:00:36;;;;;;;;;;;17.20;99.90;;;;;;5084545;28;19908;-80
2023/10/23 05:03:03;;;;;;;;;;;17.20;99.90;;;;;;5083074;28;19916;-81
2023/10/23 05:05:29;;;;;;;;;;;17.20;99.90;;;;;;5084300;28;19913;-81
2023/10/23 05:07:55;;;;;;;;;;;17.20;99.90;;;;;;5082402;28;19919;-84
2023/10/23 05:10:20;;;;;;;;;;;17.20;99.90;;;;;;5084293;28;19919;-82
2023/10/23 05:12:49;;;;;;;;;;;17.30;99.90;;;;;;5073185;28;19931;-78
2023/10/23 05:15:15;;;;;;;;;;;17.30;99.90;;;;;;5084167;28;19963;-79
2023/10/23 05:17:40;;;;;;;;;;;17.40;99.90;;;;;;5083395;28;19912;-76
2023/10/23 05:20:06;;;;;;;;;;;17.40;99.90;;;;;;5082579;28;19909;-81
2023/10/23 05:22:32;;;;;;;;;;;17.50;99.90;;;;;;5083063;28;20339;-77
2023/10/23 05:24:57;;;;;;;;;;;17.50;99.90;;;;;;5086626;28;19969;-79
2023/10/23 05:27:23;;;;;;;;;;;17.50;99.90;;;;;;5093028;28;19965;-79
2023/10/23 05:29:48;;;;;;;;;;;17.50;99.90;;;;;;5088438;28;19968;-78
2023/10/23 05:32:14;;;;;;;;;;;17.50;99.90;;;;;;5084592;28;19908;-77
2023/10/23 05:34:43;;;;;;;;;;;17.60;99.90;;;;;;5076782;28;19912;-81
2023/10/23 05:37:08;;;;;;;;;;;17.70;99.90;;;;;;5093792;28;19947;-83
2023/10/23 05:39:34;;;;;;;;;;;17.60;99.90;;;;;;5089445;28;20441;-79
2023/10/23 05:41:59;;;;;;;;;;;17.60;99.90;;;;;;5093696;28;20360;-82
2023/10/23 05:44:25;;;;;;;;;;;17.60;99.90;;;;;;5084743;28;19915;-86
2023/10/23 05:46:50;;;;;;;;;;;17.50;99.90;;;;;;5085078;28;20018;-80
2023/10/23 05:49:16;;;;;;;;;;;17.50;99.90;;;;;;5085556;28;20066;-81
2023/10/23 05:51:41;;;;;;;;;;;17.60;99.90;;;;;;5085763;28;19939;-83
2023/10/23 05:54:08;;;;;;;;;;;17.60;99.90;;;;;;5086962;28;19919;-80
2023/10/23 05:56:33;;;;;;;;;;;17.70;99.90;;;;;;5087224;28;19912;-82
2023/10/23 05:58:59;;;;;;;;;;;17.80;99.90;;;;;;5089765;28;20432;-82
2023/10/23 06:01:24;;;;;;;;;;;17.80;99.90;;;;;;5096019;28;19916;-79
2023/10/23 06:03:50;;;;;;;;;;;17.90;99.90;;;;;;5096281;28;19915;-81
2023/10/23 06:06:15;;;;;;;;;;;17.90;99.90;;;;;;5097832;28;19915;-80
2023/10/23 06:08:41;;;;;;;;;;;18.00;99.90;;;;;;5095935;28;19913;-86
2023/10/23 06:11:08;;;;;;;;;;;18.10;99.90;;;;;;5094797;28;19911;-78
2023/10/23 06:13:33;;;;;;;;;;;18.10;99.90;;;;;;5093330;28;19975;-83
2023/10/23 06:16:02;;;;;;;;;;;18.10;99.90;;;;;;5094423;28;20390;-81
2023/10/23 06:18:28;;;;;;;;;;;18.10;99.90;;;;;;5093094;28;19912;-79
2023/10/23 06:20:58;;;;;;;;;;;18.10;99.90;;;;;;5094398;28;20388;-79
2023/10/23 06:23:24;;;;;;;;;;;18.10;99.90;;;;;;5094495;28;20348;-87
2023/10/23 06:25:55;;;;;;;;;;;18.10;99.90;;;;;;5096276;28;19931;-80
2023/10/23 06:28:21;;;;;;;;;;;18.10;99.90;;;;;;5088659;28;19967;-82
2023/10/23 06:30:47;;;;;;;;;;;18.10;99.90;;;;;;5086156;28;20416;-88
2023/10/23 06:33:12;;;;;;;;;;;18.20;99.90;;;;;;5095004;28;19994;-82
2023/10/23 06:35:38;;;;;;;;;;;18.20;99.90;;;;;;5094167;28;20323;-78
2023/10/23 06:38:04;;;;;;;;;;;18.20;99.90;;;;;;5093867;28;20405;-77
2023/10/23 06:40:29;;;;;;;;;;;18.20;99.90;;;;;;5093443;28;20382;-81
2023/10/23 06:42:55;;;;;;;;;;;18.20;99.90;;;;;;5095100;28;19931;-82
2023/10/23 06:45:20;;;;;;;;;;;18.30;99.90;;;;;;5089780;28;19915;-82
2023/10/23 06:47:49;;;;;;;;;;;18.40;99.90;;;;;;5086497;28;19915;-79
2023/10/23 06:50:15;;;;;;;;;;;18.40;99.90;;;;;;5076686;28;19908;-86
2023/10/23 06:52:42;;;;;;;;;;;18.40;99.90;;;;;;5077210;28;19977;-83
2023/10/23 06:55:08;;;;;;;;;;;18.50;99.90;;;;;;5076743;28;20439;-83
2023/10/23 06:57:34;;;;;;;;;;;18.50;99.90;;;;;;5087377;28;19927;-83
2023/10/23 06:59:59;;;;;;;;;;;18.50;99.90;;;;;;5091640;28;19908;-88
2023/10/23 07:02:25;;;;;;;;;;;18.50;99.90;;;;;;5088970;28;19958;-80
2023/10/23 07:04:50;;;;;;;;;;;18.50;99.90;;;;;;5093086;28;19915;-78
2023/10/23 07:07:16;;;;;;;;;;;18.50;99.90;;;;;;5089878;28;19908;-77
2023/10/23 07:09:42;;;;;;;;;;;18.40;99.90;;;;;;5092131;28;20386;-75
2023/10/23 07:12:07;;;;;;;;;;;18.50;99.90;;;;;;5083264;28;19914;-75
2023/10/23 07:14:33;;;;;;;;;;;18.60;99.90;;;;;;5095300;28;20685;-75
2023/10/23 07:16:58;;;;;;;;;;;18.70;99.90;;;;;;5084734;28;19921;-77
2023/10/23 07:19:24;;;;;;;;;;;18.70;99.90;;;;;;5091511;28;19912;-76
2023/10/23 07:21:49;;;;;;;;;;;18.80;99.90;;;;;;5079256;28;19995;-77
2023/10/23 07:24:15;;;;;;;;;;;18.80;99.90;;;;;;5080750;28;20291;-75
2023/10/23 07:26:40;;;;;;;;;;;18.80;99.90;;;;;;5072847;28;20373;-79
2023/10/23 07:29:06;;;;;;;;;;;18.80;99.90;;;;;;5084061;28;20380;-76
2023/10/23 07:31:32;;;;;;;;;;;18.90;99.90;;;;;;5090030;28;19950;-76
2023/10/23 07:33:57;;;;;;;;;;;19.00;99.90;;;;;;5092618;28;19961;-75
2023/10/23 07:36:23;;;;;;;;;;;19.00;99.90;;;;;;5085874;28;19909;-76
2023/10/23 07:38:49;;;;;;;;;;;19.10;99.90;;;;;;5076275;28;19960;-75
2023/10/23 07:41:14;;;;;;;;;;;19.10;99.90;;;;;;5079183;28;19923;-79
2023/10/23 07:43:40;;;;;;;;;;;19.10;99.90;;;;;;5077466;28;20398;-74
2023/10/23 07:46:07;;;;;;;;;;;19.20;99.90;;;;;;5074344;28;19923;-75
2023/10/23 07:48:33;;;;;;;;;;;19.20;99.90;;;;;;5077823;28;20387;-75
2023/10/23 07:50:59;;;;;;;;;;;19.30;99.90;;;;;;5079253;28;19912;-76
2023/10/23 07:53:25;;;;;;;;;;;19.30;99.90;;;;;;5080159;28;19916;-76
2023/10/23 07:55:51;;;;;;;;;;;19.50;99.90;;;;;;5082853;28;19930;-76
2023/10/23 07:58:17;;;;;;;;;;;19.60;99.90;;;;;;5078632;28;19912;-75
2023/10/23 08:00:43;;;;;;;;;;;19.80;99.90;;;;;;5084236;28;19934;-74
2023/10/23 08:03:09;;;;;;;;;;;20.00;99.90;;;;;;5081481;28;19964;-74
2023/10/23 08:05:34;;;;;;;;;;;20.10;99.90;;;;;;5076483;28;19909;-75
2023/10/23 08:08:00;;;;;;;;;;;20.20;99.90;;;;;;5077630;28;19917;-74
2023/10/23 08:10:26;;;;;;;;;;;20.30;99.90;;;;;;5081708;28;19999;-75
2023/10/23 08:12:51;;;;;;;;;;;20.30;99.90;;;;;;5076858;28;19908;-74
2023/10/23 08:15:17;;;;;;;;;;;20.40;99.90;;;;;;5079818;28;20571;-76
2023/10/23 08:17:42;;;;;;;;;;;20.60;99.90;;;;;;5077809;28;19940;-76
2023/10/23 08:20:08;;;;;;;;;;;20.60;99.90;;;;;;5077162;28;19941;-75
2023/10/23 08:22:34;;;;;;;;;;;20.70;99.90;;;;;;5079116;28;19915;-76
2023/10/23 08:25:00;;;;;;;;;;;20.80;99.90;;;;;;5077752;28;19952;-75
2023/10/23 08:27:25;;;;;;;;;;;20.90;99.90;;;;;;5075305;28;20024;-75
2023/10/23 08:29:51;;;;;;;;;;;20.90;99.90;;;;;;5078970;28;19912;-77
2023/10/23 08:32:16;;;;;;;;;;;20.60;99.90;;;;;;5077910;28;20253;-77
2023/10/23 08:34:42;;;;;;;;;;;19.80;99.90;;;;;;5078502;28;20339;-77
2023/10/23 08:37:07;;;;;;;;;;;19.40;99.90;;;;;;5076136;28;19914;-76
2023/10/23 08:39:33;;;;;;;;;;;19.00;99.90;;;;;;5080059;28;19908;-76
2023/10/23 08:42:00;;;;;;;;;;;18.50;99.90;;;;;;5080997;28;19919;-75
2023/10/23 08:44:25;;;;;;;;;;;18.10;99.90;;;;;;5081747;28;20044;-76
2023/10/23 08:46:51;;;;;;;;;;;17.80;99.90;;;;;;5081167;28;19941;-77
2023/10/23 08:49:17;;;;;;;;;;;17.30;99.90;;;;;;5075278;28;19932;-77
2023/10/23 08:51:45;;;;;;;;;;;17.20;99.90;;;;;;5076733;28;19999;-77
2023/10/23 08:54:17;;;;;;;;;;;17.00;99.90;;;;;;5076103;28;20407;-81
2023/10/23 08:56:43;;;;;;;;;;;16.90;99.90;;;;;;5072458;28;20387;-80
2023/10/23 08:59:09;;;;;;;;;;;16.90;99.90;;;;;;5081184;28;20179;-77
2023/10/23 09:01:35;;;;;;;;;;;16.80;99.90;;;;;;5077315;28;20330;-76
2023/10/23 09:04:01;;;;;;;;;;;16.90;99.90;;;;;;5077566;28;19916;-76
2023/10/23 09:06:26;;;;;;;;;;;16.90;99.90;;;;;;5080126;28;19919;-74
2023/10/23 09:08:52;;;;;;;;;;;16.90;99.90;;;;;;5079092;28;20352;-76
2023/10/23 09:11:17;;;;;;;;;;;16.70;99.90;;;;;;5080916;28;20443;-74
2023/10/23 09:13:43;;;;;;;;;;;16.70;99.90;;;;;;5080561;28;19908;-76
2023/10/23 09:16:09;;;;;;;;;;;16.60;99.90;;;;;;5080252;28;20387;-76
2023/10/23 09:18:55;;;;;;;;;;;16.70;99.90;;;;;;5077618;28;20415;-74
2023/10/23 09:21:21;;;;;;;;;;;16.70;99.90;;;;;;5078914;28;19971;-75
2023/10/23 09:23:49;;;;;;;;;;;16.70;99.90;;;;;;5078339;28;19917;-76
2023/10/23 09:26:15;;;;;;;;;;;16.60;99.90;;;;;;5075618;28;19916;-79
2023/10/23 09:28:40;;;;;;;;;;;16.60;99.90;;;;;;5079655;28;20307;-76
2023/10/23 09:31:06;;;;;;;;;;;16.60;99.90;;;;;;5077334;28;20265;-77
2023/10/23 09:33:32;;;;;;;;;;;16.70;99.90;;;;;;5075062;28;19931;-74
2023/10/23 09:35:59;;;;;;;;;;;16.80;99.90;;;;;;5079165;28;19916;-75
2023/10/23 09:38:25;;;;;;;;;;;16.60;99.90;;;;;;5077017;28;19914;-76
2023/10/23 09:40:55;;;;;;;;;;;16.40;99.90;;;;;;5081017;28;20447;-75
2023/10/23 09:43:21;;;;;;;;;;;16.30;99.90;;;;;;5075695;28;19908;-76
2023/10/23 09:45:47;;;;;;;;;;;16.20;99.90;;;;;;5075360;28;19908;-76
2023/10/23 09:48:13;;;;;;;;;;;16.20;99.90;;;;;;5077794;28;20387;-75
2023/10/23 09:50:39;;;;;;;;;;;16.10;99.90;;;;;;5077271;28;19916;-76
2023/10/23 09:53:06;;;;;;;;;;;16.10;99.90;;;;;;5074990;28;19909;-75
2023/10/23 09:55:32;;;;;;;;;;;16.00;99.90;;;;;;5080270;28;20287;-78
2023/10/23 09:58:00;;;;;;;;;;;16.00;99.90;;;;;;5087063;28;20375;-78
2023/10/23 10:00:26;;;;;;;;;;;16.00;99.90;;;;;;5081518;28;19908;-79
2023/10/23 10:02:55;;;;;;;;;;;16.00;99.90;;;;;;5079343;28;19908;-76
2023/10/23 10:05:42;;;;;;;;;;;15.90;99.90;;;;;;5080922;28;19916;-77
2023/10/23 10:08:08;;;;;;;;;;;15.80;99.90;;;;;;5080162;28;19915;-75
2023/10/23 10:10:37;;;;;;;;;;;16.00;99.90;;;;;;5079998;28;19912;-78
2023/10/23 10:13:03;;;;;;;;;;;16.00;99.90;;;;;;5079560;28;20003;-76
2023/10/23 10:15:29;;;;;;;;;;;16.10;99.90;;;;;;5088174;28;19959;-73
2023/10/23 10:17:55;;;;;;;;;;;16.20;99.90;;;;;;5092735;28;19912;-76
2023/10/23 10:20:21;;;;;;;;;;;16.30;99.90;;;;;;5087826;28;19916;-77
2023/10/23 10:22:56;;;;;;;;;;;16.30;99.90;;;;;;5092380;28;19953;-74
2023/10/23 10:25:23;;;;;;;;;;;16.30;99.90;;;;;;5088334;28;19965;-73
2023/10/23 10:27:55;;;;;;;;;;;16.20;99.90;;;;;;5091137;28;19920;-74
2023/10/23 10:30:37;;;;;;;;;;;16.10;99.90;;;;;;5087251;28;19908;-74
2023/10/23 10:33:02;;;;;;;;;;;16.10;99.90;;;;;;5086217;28;19913;-73
2023/10/23 10:35:28;;;;;;;;;;;16.20;99.90;;;;;;5083691;28;20364;-75
2023/10/23 10:37:58;;;;;;;;;;;16.20;99.90;;;;;;5079328;28;20280;-76
2023/10/23 10:40:24;;;;;;;;;;;16.20;99.90;;;;;;5080506;28;19908;-77
2023/10/23 10:42:50;;;;;;;;;;;16.30;99.90;;;;;;5079114;28;19917;-76
2023/10/23 10:45:17;;;;;;;;;;;16.30;99.90;;;;;;5065138;28;19920;-75
2023/10/23 10:47:45;;;;;;;;;;;16.30;99.90;;;;;;5080153;28;19955;-75
2023/10/23 10:50:11;;;;;;;;;;;16.30;99.90;;;;;;5078438;28;19915;-76
2023/10/23 10:52:38;;;;;;;;;;;16.30;99.90;;;;;;5079710;28;20304;-76
2023/10/23 10:55:04;;;;;;;;;;;16.30;99.90;;;;;;5076888;28;20006;-77
2023/10/23 10:57:29;;;;;;;;;;;16.40;99.90;;;;;;5077839;28;19917;-78
2023/10/23 10:59:58;;;;;;;;;;;16.50;99.90;;;;;;5076123;28;19982;-76
2023/10/23 11:02:24;;;;;;;;;;;16.50;99.90;;;;;;5078637;28;19915;-73
2023/10/23 11:04:50;;;;;;;;;;;16.50;99.90;;;;;;5077026;28;20597;-77
2023/10/23 11:07:25;;;;;;;;;;;16.50;99.90;;;;;;5086510;28;19919;-77
2023/10/23 11:09:51;;;;;;;;;;;16.40;99.90;;;;;;5093999;28;19912;-76
2023/10/23 11:12:18;;;;;;;;;;;16.40;99.90;;;;;;5091729;28;19995;-74
2023/10/23 11:14:44;;;;;;;;;;;16.40;99.90;;;;;;5084877;28;20366;-76
2023/10/23 11:17:09;;;;;;;;;;;16.40;99.90;;;;;;5086880;28;19913;-74
2023/10/23 11:19:35;;;;;;;;;;;16.50;99.90;;;;;;5095117;28;19919;-75
2023/10/23 11:22:07;;;;;;;;;;;16.50;99.90;;;;;;5088252;28;19912;-75
2023/10/23 11:24:33;;;;;;;;;;;16.60;99.90;;;;;;5076877;28;20003;-76
2023/10/23 11:26:59;;;;;;;;;;;16.50;99.90;;;;;;5086416;28;19986;-77
2023/10/23 11:29:24;;;;;;;;;;;16.50;99.90;;;;;;5093465;28;20050;-77
2023/10/23 11:31:51;;;;;;;;;;;16.60;99.90;;;;;;5091410;28;19944;-76
2023/10/23 11:34:16;;;;;;;;;;;16.60;99.90;;;;;;5093753;28;19923;-76
2023/10/23 11:36:42;;;;;;;;;;;16.60;99.90;;;;;;5092522;28;20299;-76
2023/10/23 11:39:08;;;;;;;;;;;16.60;99.90;;;;;;5093550;28;19943;-77
2023/10/23 11:41:33;;;;;;;;;;;16.70;99.90;;;;;;5096569;28;19953;-77
2023/10/23 11:44:00;;;;;;;;;;;16.70;99.90;;;;;;5090710;28;19912;-75
2023/10/23 11:46:25;;;;;;;;;;;16.80;99.90;;;;;;5073832;28;19954;-78
2023/10/23 11:48:51;;;;;;;;;;;16.90;99.90;;;;;;5084687;28;19917;-77
2023/10/23 11:51:16;;;;;;;;;;;17.00;99.90;;;;;;5081632;28;19912;-76
2023/10/23 11:53:42;;;;;;;;;;;17.10;99.90;;;;;;5081316;28;20241;-75
2023/10/23 11:56:08;;;;;;;;;;;17.20;99.90;;;;;;5080586;28;19908;-76
2023/10/23 11:58:33;;;;;;;;;;;17.30;99.90;;;;;;5081270;28;20287;-78
2023/10/23 12:00:59;;;;;;;;;;;17.50;99.90;;;;;;5079677;28;19919;-78
2023/10/23 12:03:24;;;;;;;;;;;17.60;99.90;;;;;;5079846;28;19915;-77
2023/10/23 12:05:50;;;;;;;;;;;17.90;99.90;;;;;;5079781;28;19909;-79
2023/10/23 12:08:15;;;;;;;;;;;18.10;99.90;;;;;;5074272;28;19908;-77
2023/10/23 12:10:41;;;;;;;;;;;18.30;99.90;;;;;;5080612;28;19915;-75
2023/10/23 12:13:06;;;;;;;;;;;18.40;99.90;;;;;;5080735;28;19917;-76
2023/10/23 12:15:32;;;;;;;;;;;18.50;99.90;;;;;;5075487;28;20432;-79
2023/10/23 12:18:03;;;;;;;;;;;18.50;99.90;;;;;;5083643;28;19913;-77
2023/10/23 12:20:29;;;;;;;;;;;18.50;99.90;;;;;;5082039;28;19927;-77
2023/10/23 12:22:55;;;;;;;;;;;18.60;99.90;;;;;;5080284;28;20288;-76
2023/10/23 12:25:21;;;;;;;;;;;18.70;99.90;;;;;;5078988;28;19908;-74
2023/10/23 12:27:47;;;;;;;;;;;18.80;99.90;;;;;;5080268;28;20408;-76
2023/10/23 12:30:12;;;;;;;;;;;18.80;99.90;;;;;;5082658;28;19912;-80
2023/10/23 12:32:39;;;;;;;;;;;18.90;99.90;;;;;;5080546;28;19908;-77
2023/10/23 12:35:05;;;;;;;;;;;19.10;99.90;;;;;;5077762;28;19962;-75
2023/10/23 12:37:30;;;;;;;;;;;19.20;99.90;;;;;;5080677;28;19908;-80
2023/10/23 12:39:58;;;;;;;;;;;19.30;99.90;;;;;;5077722;28;19909;-78
2023/10/23 12:42:24;;;;;;;;;;;19.20;99.90;;;;;;5084026;28;19912;-77
2023/10/23 12:44:50;;;;;;;;;;;19.30;99.90;;;;;;5082115;28;19918;-80
2023/10/23 12:47:15;;;;;;;;;;;19.30;99.90;;;;;;5079846;28;19916;-76
2023/10/23 12:49:42;;;;;;;;;;;19.10;99.90;;;;;;5081947;28;19954;-75
2023/10/23 12:52:08;;;;;;;;;;;19.10;99.90;;;;;;5077280;28;19915;-76
2023/10/23 12:54:33;;;;;;;;;;;19.00;99.90;;;;;;5075146;28;20346;-78
2023/10/23 12:56:59;;;;;;;;;;;19.10;99.90;;;;;;5075868;28;19919;-77
2023/10/23 12:59:24;;;;;;;;;;;19.10;99.90;;;;;;5081945;28;20693;-76
2023/10/23 13:01:50;;;;;;;;;;;19.00;99.90;;;;;;5078811;28;19912;-76
2023/10/23 13:04:16;;;;;;;;;;;19.10;99.90;;;;;;5075757;28;19916;-74
2023/10/23 13:06:41;;;;;;;;;;;19.10;99.90;;;;;;5082074;28;19908;-76
2023/10/23 13:09:07;;;;;;;;;;;19.20;99.90;;;;;;5076532;28;20327;-75
2023/10/23 13:11:32;;;;;;;;;;;19.20;99.90;;;;;;5079666;28;19951;-77
2023/10/23 13:13:58;;;;;;;;;;;19.20;99.90;;;;;;5078830;28;19940;-76
2023/10/23 13:16:25;;;;;;;;;;;19.20;99.90;;;;;;5079225;28;19916;-76
2023/10/23 13:18:52;;;;;;;;;;;19.30;99.90;;;;;;5072771;28;19909;-78
2023/10/23 13:21:18;;;;;;;;;;;19.30;99.90;;;;;;5080021;28;19975;-73
2023/10/23 13:23:44;;;;;;;;;;;19.30;99.90;;;;;;5077579;28;19995;-77
2023/10/23 13:26:09;;;;;;;;;;;19.40;99.90;;;;;;5076293;28;19944;-76
2023/10/23 13:28:35;;;;;;;;;;;19.40;99.90;;;;;;5080078;28;20466;-80
2023/10/23 13:31:01;;;;;;;;;;;19.40;99.90;;;;;;5078022;28;20075;-78
2023/10/23 13:33:26;;;;;;;;;;;19.50;99.90;;;;;;5077567;28;19931;-74
2023/10/23 13:35:54;;;;;;;;;;;19.60;99.90;;;;;;5075329;28;21300;-78
2023/10/23 13:38:19;;;;;;;;;;;19.70;99.90;;;;;;5077883;28;19913;-78
2023/10/23 13:40:45;;;;;;;;;;;19.90;99.90;;;;;;5075174;28;19919;-77
2023/10/23 13:43:11;;;;;;;;;;;20.00;99.90;;;;;;5081047;28;19920;-78
2023/10/23 13:45:36;;;;;;;;;;;20.20;99.90;;;;;;5075329;28;19909;-76
2023/10/23 13:48:03;;;;;;;;;;;20.40;99.90;;;;;;5080025;28;19908;-77
2023/10/23 13:50:28;;;;;;;;;;;20.50;99.90;;;;;;5077104;28;19909;-75
2023/10/23 13:52:54;;;;;;;;;;;20.30;99.90;;;;;;5078622;28;20300;-75
2023/10/23 13:55:20;;;;;;;;;;;20.20;99.90;;;;;;5076167;28;19924;-74
2023/10/23 13:57:45;;;;;;;;;;;20.20;99.90;;;;;;5075295;28;20376;-77
2023/10/23 14:00:11;;;;;;;;;;;20.10;99.90;;;;;;5078702;28;21531;-78
2023/10/23 14:02:37;;;;;;;;;;;20.10;99.90;;;;;;5075728;28;19909;-77
2023/10/23 14:05:04;;;;;;;;;;;20.10;99.90;;;;;;5079010;28;19908;-78
2023/10/23 14:07:30;;;;;;;;;;;20.10;99.90;;;;;;5077325;28;19966;-78
2023/10/23 14:09:56;;;;;;;;;;;20.00;99.90;;;;;;5074977;28;19962;-77